Terminal Aerodrome Forecast
Issued by NWS Norman, OK

Home | Current Version | Previous Version | Text Only | Print | Product List | Glossary On
Versions: 1 2 3 4 5 6 7 8 9 10 11 12 13 14 15 16 17 18 19 20 21 22 23 24 25 26 27 28
000
FTUS44 KOUN 220520
TAFSPS
TAF
KSPS 220520Z 2206/2306 15011KT P6SM SCT120
     FM221500 22010KT P6SM SCT120
     FM222100 17008KT P6SM SCT080 BKN120
     FM230300 02008KT P6SM VCTS BKN080CB
      TEMPO 2303/2306 3SM TSRA BKN040CB=

USA.gov is the U.S. government's official web portal to all federal, state and local government web resources and services.